Time;durP1;ratioP1;P1;durP2;ratioP2;P2;SDS_P1;SDS_P2;PMS_P1;PMS_P2;Temp;Humidity;BMP_temperature;BMP_pressure;BME280_temperature;BME280_humidity;BME280_pressure;Samples;Min_cycle;Max_cycle;Signal;HPM_P1;HPM_P2
2023/04/29 00:00:35;;;;;;;3.53;2.30;;;;;;;21.16;44.38;101405.78;20994408;28;20040;-74
2023/04/29 00:10:38;;;;;;;14.52;3.55;;;;;;;20.96;44.73;101363.97;20987499;28;20044;-70
2023/04/29 00:20:40;;;;;;;19.05;3.53;;;;;;;21.30;44.61;101414.47;20996408;28;20066;-73
2023/04/29 00:30:41;;;;;;;10.52;2.50;;;;;;;21.39;45.06;101395.31;20962720;28;20036;-68
2023/04/29 00:40:43;;;;;;;10.73;2.63;;;;;;;21.41;45.72;101368.06;20932695;28;20565;-69
2023/04/29 00:50:45;;;;;;;9.73;2.90;;;;;;;21.48;46.18;101363.06;20917005;28;20439;-69
2023/04/29 01:00:47;;;;;;;3.35;2.47;;;;;;;21.39;46.24;101351.63;20956430;28;20496;-70
2023/04/29 01:11:07;;;;;;;4.30;2.15;;;;;;;21.67;45.75;101403.22;20996711;28;20087;-69
2023/04/29 01:21:08;;;;;;;3.75;2.35;;;;;;;21.67;46.28;101405.16;20984044;28;20040;-68
2023/04/29 01:31:30;;;;;;;4.00;2.20;;;;;;;21.76;46.47;101398.78;20996157;28;20037;-70
2023/04/29 01:41:56;;;;;;;3.50;2.40;;;;;;;21.79;46.46;101420.50;20995407;28;20094;-69
2023/04/29 01:52:00;;;;;;;6.18;2.53;;;;;;;21.76;46.44;101337.50;20993886;28;20048;-69
2023/04/29 02:02:01;;;;;;;4.15;2.10;;;;;;;21.76;46.55;101336.63;20991026;28;20066;-68
2023/04/29 02:12:03;;;;;;;4.03;2.70;;;;;;;21.91;46.42;101388.78;20966640;28;20060;-69
2023/04/29 02:22:05;;;;;;;6.10;2.50;;;;;;;21.87;47.48;101329.16;20993171;28;20442;-68
2023/04/29 02:32:09;;;;;;;10.10;2.47;;;;;;;21.83;48.05;101309.34;20978202;28;20040;-69
2023/04/29 02:42:13;;;;;;;4.65;2.30;;;;;;;21.98;48.54;101330.81;20971850;28;20044;-69
2023/04/29 02:52:20;;;;;;;7.13;2.67;;;;;;;22.01;48.67;101335.84;20991442;28;20442;-69
2023/04/29 03:02:22;;;;;;;4.65;2.45;;;;;;;22.02;48.34;101307.69;20988225;28;20033;-69
2023/04/29 03:12:23;;;;;;;3.50;2.20;;;;;;;21.99;48.51;101263.69;20989436;28;20057;-69
2023/04/29 03:22:30;;;;;;;3.15;2.15;;;;;;;21.98;48.42;101250.00;20991237;28;20028;-69
2023/04/29 03:32:32;;;;;;;3.15;2.35;;;;;;;21.87;48.35;101226.91;21004070;28;20045;-69
2023/04/29 03:42:33;;;;;;;3.08;2.00;;;;;;;21.93;47.90;101191.50;21005284;28;20035;-69
2023/04/29 03:52:38;;;;;;;2.50;2.30;;;;;;;21.95;47.96;101172.56;21002331;28;20048;-70
2023/04/29 04:02:39;;;;;;;3.60;2.20;;;;;;;21.94;47.87;101190.38;21086965;28;20051;-68
2023/04/29 04:12:40;;;;;;;4.35;2.70;;;;;;;21.90;47.66;101197.63;21086783;28;20044;-68
2023/04/29 04:22:42;;;;;;;4.32;2.20;;;;;;;21.91;47.68;101166.72;21086464;28;20032;-68
2023/04/29 04:32:46;;;;;;;2.35;2.00;;;;;;;21.83;47.34;101137.47;21085360;28;20044;-69
2023/04/29 04:42:47;;;;;;;5.18;2.38;;;;;;;21.88;47.33;101141.38;21084319;28;20032;-69
2023/04/29 04:52:49;;;;;;;2.38;2.10;;;;;;;21.81;47.28;101086.78;21083590;28;20044;-69
2023/04/29 05:02:50;;;;;;;2.47;2.28;;;;;;;21.81;47.19;101084.00;21082921;28;20564;-69
2023/04/29 05:12:52;;;;;;;2.80;1.90;;;;;;;21.85;47.13;101089.00;21082064;28;20089;-70
2023/04/29 05:22:53;;;;;;;4.15;2.03;;;;;;;21.78;47.14;101055.88;21081438;28;20040;-70
2023/04/29 05:32:55;;;;;;;2.50;1.77;;;;;;;21.80;46.84;101051.66;21081105;28;20093;-69
2023/04/29 05:42:56;;;;;;;2.05;1.73;;;;;;;21.81;46.74;101039.44;21081325;28;20089;-68
2023/04/29 05:53:00;;;;;;;5.07;2.03;;;;;;;21.76;46.70;101019.09;21058508;28;20040;-68
2023/04/29 06:03:02;;;;;;;2.38;2.17;;;;;;;21.78;46.72;101014.91;21078349;28;20040;-69
2023/04/29 06:13:03;;;;;;;2.22;2.03;;;;;;;21.79;46.39;100999.88;21077587;28;20047;-69
2023/04/29 06:23:04;;;;;;;3.60;1.70;;;;;;;21.77;46.14;100982.63;21077577;28;20032;-69
2023/04/29 06:33:07;;;;;;;2.53;2.10;;;;;;;21.75;46.19;100968.13;21076634;28;20062;-69
2023/04/29 06:43:08;;;;;;;1.92;1.73;;;;;;;21.76;45.89;100968.97;21076960;28;20032;-69
2023/04/29 06:53:09;;;;;;;1.85;1.55;;;;;;;21.74;46.07;100988.75;21075639;28;20070;-69
2023/04/29 07:03:11;;;;;;;1.80;1.70;;;;;;;21.74;45.83;100988.75;21086384;28;20032;-68
2023/04/29 07:13:12;;;;;;;2.22;1.77;;;;;;;21.75;45.74;100970.91;21091259;28;20048;-69
2023/04/29 07:23:14;;;;;;;2.58;1.63;;;;;;;21.70;45.69;100926.38;21091158;28;20051;-71
2023/04/29 07:33:15;;;;;;;2.30;1.83;;;;;;;21.61;45.59;100897.47;21087029;28;20044;-69
2023/04/29 07:43:19;;;;;;;1.73;1.63;;;;;;;21.69;45.88;100879.34;21089296;28;20033;-69
2023/04/29 07:53:20;;;;;;;2.70;1.88;;;;;;;21.60;45.57;100887.47;21067851;28;20049;-69
2023/04/29 08:03:21;;;;;;;1.60;1.50;;;;;;;21.53;45.50;100890.56;21087565;28;20040;-69
2023/04/29 08:13:23;;;;;;;1.50;1.40;;;;;;;21.65;45.51;100892.16;21086162;28;20184;-69
2023/04/29 08:23:25;;;;;;;2.03;1.60;;;;;;;21.56;45.64;100869.66;21085741;28;20032;-70
2023/04/29 08:33:27;;;;;;;1.60;1.50;;;;;;;21.40;45.41;100859.75;21085313;28;20043;-69
2023/04/29 08:43:29;;;;;;;1.70;1.25;;;;;;;21.35;45.46;100823.56;21084456;28;20032;-69
2023/04/29 08:53:33;;;;;;;1.85;1.52;;;;;;;21.63;45.40;100874.94;21084104;28;20483;-68
2023/04/29 09:04:07;;;;;;;2.80;1.42;;;;;;;21.55;45.18;100863.25;21082712;28;20113;-69
2023/04/29 09:14:08;;;;;;;1.60;1.50;;;;;;;21.62;45.28;100834.25;21056476;28;20048;-68
2023/04/29 09:24:23;;;;;;;1.52;1.33;;;;;;;21.55;45.06;100826.22;21082336;28;20036;-70
2023/04/29 09:34:36;;;;;;;1.17;1.08;;;;;;;21.57;44.99;100851.81;21081011;28;20082;-69
2023/04/29 09:44:41;;;;;;;1.55;1.30;;;;;;;21.56;45.10;100850.16;21073803;28;20040;-69
2023/04/29 09:54:43;;;;;;;2.20;1.50;;;;;;;21.56;45.17;100869.66;21050448;28;20067;-69
2023/04/29 10:04:46;;;;;;;1.63;1.05;;;;;;;21.55;44.87;100859.66;21077944;28;20044;-69
2023/04/29 10:14:56;;;;;;;1.58;1.27;;;;;;;21.54;45.04;100860.78;21078100;28;20036;-69
2023/04/29 10:25:00;;;;;;;1.27;1.08;;;;;;;21.52;44.72;100857.41;21077612;28;20043;-68
2023/04/29 10:35:04;;;;;;;1.65;1.17;;;;;;;21.51;45.00;100878.03;21076377;28;20040;-68
2023/04/29 10:45:28;;;;;;;1.30;1.10;;;;;;;21.46;44.78;100873.34;21075962;28;20495;-69
2023/04/29 10:55:31;;;;;;;1.38;1.10;;;;;;;21.47;44.88;100876.94;21018653;28;20086;-69
2023/04/29 11:05:36;;;;;;;1.10;1.00;;;;;;;21.33;44.87;100848.91;20991891;28;20121;-68
2023/04/29 11:15:37;;;;;;;1.58;1.10;;;;;;;21.48;44.79;100890.56;20980976;28;20475;-69
2023/04/29 11:25:39;;;;;;;1.35;1.00;;;;;;;21.33;44.57;100862.00;20991071;28;20514;-69
2023/04/29 11:35:41;;;;;;;1.52;0.90;;;;;;;21.24;44.62;100839.44;21073663;28;20036;-69
2023/04/29 11:45:45;;;;;;;1.33;1.00;;;;;;;21.40;44.74;100863.34;21076298;28;20040;-69
2023/04/29 11:55:46;;;;;;;1.05;0.90;;;;;;;21.46;44.59;100887.25;21088674;28;20036;-69
2023/04/29 12:05:51;;;;;;;1.30;1.02;;;;;;;21.46;44.68;100903.97;21087840;28;20052;-70
2023/04/29 12:15:55;;;;;;;1.13;0.93;;;;;;;21.45;44.62;100884.75;21086571;28;20044;-69
2023/04/29 12:25:59;;;;;;;1.45;0.80;;;;;;;21.34;44.48;100856.13;21086540;28;20448;-69
2023/04/29 12:36:01;;;;;;;1.38;1.27;;;;;;;21.25;44.56;100853.06;21085635;28;20040;-69
2023/04/29 12:46:04;;;;;;;1.05;0.95;;;;;;;21.23;44.60;100855.31;21083948;28;20035;-69
2023/04/29 12:56:11;;;;;;;1.35;1.00;;;;;;;21.39;44.34;100885.88;21083342;28;20040;-69
2023/04/29 13:06:12;;;;;;;1.45;1.13;;;;;;;21.47;44.54;100890.88;21033508;28;20103;-69
2023/04/29 13:16:13;;;;;;;1.08;0.93;;;;;;;21.29;44.63;100833.84;20970977;28;20102;-69
2023/04/29 13:26:15;;;;;;;0.80;0.80;;;;;;;21.20;44.85;100830.00;20942432;28;20079;-69
2023/04/29 13:36:16;;;;;;;0.88;0.88;;;;;;;21.45;44.68;100881.97;20935554;28;20442;-69
2023/04/29 13:46:17;;;;;;;3.45;0.93;;;;;;;21.39;44.98;100863.63;20993462;28;20105;-69
2023/04/29 13:56:19;;;;;;;1.70;1.00;;;;;;;21.46;44.73;100850.22;20954444;28;20090;-69
2023/04/29 14:06:21;;;;;;;1.52;1.10;;;;;;;21.45;44.77;100845.78;20946399;28;20052;-70
2023/04/29 14:16:22;;;;;;;28.15;3.40;;;;;;;21.37;45.18;100835.25;20992312;28;20094;-73
2023/04/29 14:26:24;;;;;;;7.18;1.10;;;;;;;21.39;44.89;100835.78;20959306;28;20037;-73
2023/04/29 14:36:25;;;;;;;3.38;1.27;;;;;;;21.41;45.32;100841.91;20980599;28;20033;-74
2023/04/29 14:46:27;;;;;;;1.95;0.80;;;;;;;21.40;45.63;100866.13;20992588;28;20044;-73
2023/04/29 14:56:29;;;;;;;2.90;1.00;;;;;;;21.40;45.37;100854.16;20992405;28;20480;-73
2023/04/29 15:06:33;;;;;;;3.72;0.98;;;;;;;21.30;45.54;100864.19;20991219;28;20121;-74
2023/04/29 15:16:38;;;;;;;6.15;1.10;;;;;;;21.28;45.77;100869.19;20991546;28;20044;-74
2023/04/29 15:26:42;;;;;;;3.47;1.05;;;;;;;21.06;45.27;100821.44;21004878;28;20036;-74
2023/04/29 15:36:46;;;;;;;1.20;1.00;;;;;;;21.10;45.67;100808.63;21006421;28;20032;-74
2023/04/29 15:46:48;;;;;;;3.63;0.95;;;;;;;21.32;45.63;100858.38;21005446;28;20086;-74
2023/04/29 15:56:49;;;;;;;3.83;0.85;;;;;;;21.24;45.50;100840.28;21005273;28;20044;-73
2023/04/29 16:06:58;;;;;;;2.30;0.93;;;;;;;21.06;45.82;100827.84;21004855;28;20045;-73
2023/04/29 16:17:04;;;;;;;4.72;1.70;;;;;;;21.31;45.78;100843.63;20993691;28;20414;-71
2023/04/29 16:27:06;;;;;;;2.30;0.93;;;;;;;21.28;45.70;100818.28;20989438;28;20044;-70
2023/04/29 16:37:11;;;;;;;2.17;1.20;;;;;;;21.02;45.58;100787.78;21000697;28;20090;-70
2023/04/29 16:47:13;;;;;;;2.80;1.10;;;;;;;21.24;45.90;100831.94;21001145;28;20044;-71
2023/04/29 16:57:15;;;;;;;2.45;0.90;;;;;;;21.21;45.50;100817.75;21000046;28;20553;-70
2023/04/29 17:07:19;;;;;;;0.80;0.73;;;;;;;21.19;45.83;100826.38;20999095;28;20045;-71
2023/04/29 17:17:23;;;;;;;1.77;1.05;;;;;;;21.28;45.43;100827.47;20998278;28;20074;-71
2023/04/29 17:27:27;;;;;;;1.58;0.80;;;;;;;21.25;45.64;100813.28;20996460;28;20452;-71
2023/04/29 17:37:29;;;;;;;2.35;0.90;;;;;;;21.19;45.45;100812.47;20979089;28;20119;-71
2023/04/29 17:47:36;;;;;;;2.75;1.17;;;;;;;21.21;45.39;100807.47;20995160;28;20114;-70
2023/04/29 17:57:40;;;;;;;1.35;0.90;;;;;;;21.23;45.45;100790.47;20995202;28;20045;-71
2023/04/29 18:07:42;;;;;;;2.08;0.90;;;;;;;21.21;45.47;100749.03;20994306;28;20046;-71
2023/04/29 18:17:43;;;;;;;1.63;0.80;;;;;;;21.22;45.54;100756.25;20993871;28;20033;-71
2023/04/29 18:27:44;;;;;;;1.33;0.90;;;;;;;21.00;45.28;100714.91;20994331;28;20033;-71
2023/04/29 18:37:48;;;;;;;1.98;1.30;;;;;;;21.19;45.54;100731.78;20992905;28;20040;-71
2023/04/29 18:47:50;;;;;;;2.45;1.05;;;;;;;21.21;45.07;100729.56;20992605;28;20041;-71
2023/04/29 18:57:51;;;;;;;2.75;0.82;;;;;;;21.21;45.22;100712.84;21000986;28;20032;-71
2023/04/29 19:07:53;;;;;;;1.35;1.13;;;;;;;21.15;45.18;100697.28;21008598;28;20052;-69
2023/04/29 19:17:54;;;;;;;0.90;0.77;;;;;;;21.20;45.04;100700.03;20995440;28;20541;-70
2023/04/29 19:27:58;;;;;;;0.60;0.60;;;;;;;21.08;45.13;100663.41;21007718;28;20472;-71
2023/04/29 19:38:08;;;;;;;1.65;0.90;;;;;;;21.20;45.25;100658.28;21006580;28;20028;-72
2023/04/29 19:48:13;;;;;;;0.88;0.73;;;;;;;21.19;44.86;100667.78;21005906;28;20044;-71
2023/04/29 19:58:14;;;;;;;1.15;0.60;;;;;;;20.65;45.20;100626.94;21004866;28;20039;-71
2023/04/29 20:08:18;;;;;;;1.25;0.77;;;;;;;21.10;45.07;100633.34;21002719;28;20040;-71
2023/04/29 20:18:20;;;;;;;1.20;0.70;;;;;;;20.99;45.13;100601.16;21003788;28;20100;-71
2023/04/29 20:28:21;;;;;;;1.13;0.80;;;;;;;21.19;45.08;100676.13;21002401;28;20113;-71
2023/04/29 20:38:23;;;;;;;0.88;0.68;;;;;;;21.14;45.08;100681.72;21002523;28;20036;-70
2023/04/29 20:48:24;;;;;;;1.20;0.73;;;;;;;21.02;44.97;100653.41;21001973;28;20537;-71
2023/04/29 20:58:26;;;;;;;0.77;0.70;;;;;;;21.13;44.81;100693.97;21000094;28;20044;-71
2023/04/29 21:08:30;;;;;;;0.98;0.60;;;;;;;21.17;45.00;100706.19;20999440;28;20052;-70
2023/04/29 21:18:31;;;;;;;0.70;0.60;;;;;;;21.17;44.72;100733.19;20965025;28;20033;-71
2023/04/29 21:28:33;;;;;;;1.90;0.95;;;;;;;21.18;44.73;100738.47;20994996;28;20381;-73
2023/04/29 21:38:34;;;;;;;2.10;1.00;;;;;;;21.12;44.83;100734.06;20943029;28;20041;-72
2023/04/29 21:48:36;;;;;;;3.95;0.80;;;;;;;21.03;44.60;100711.56;20927995;28;20071;-73
2023/04/29 21:58:40;;;;;;;1.40;1.00;;;;;;;21.09;45.58;100717.09;20938654;28;20071;-76
2023/04/29 22:08:41;;;;;;;1.52;0.75;;;;;;;21.08;45.70;100774.69;20959166;28;20061;-76
2023/04/29 22:18:43;;;;;;;3.28;0.90;;;;;;;21.04;45.90;100762.47;21016871;28;20036;-75
2023/04/29 22:28:44;;;;;;;2.55;1.10;;;;;;;21.02;45.92;100743.28;20999253;28;20048;-74
2023/04/29 22:38:46;;;;;;;0.90;0.70;;;;;;;21.02;45.77;100770.25;20977568;28;20070;-74
2023/04/29 22:48:47;;;;;;;3.53;0.77;;;;;;;21.02;45.99;100720.19;21003885;28;20044;-76
2023/04/29 22:58:48;;;;;;;1.92;1.05;;;;;;;20.99;46.38;100695.75;21010796;28;20052;-73
2023/04/29 23:08:53;;;;;;;2.80;1.48;;;;;;;20.99;46.21;100712.44;20922370;28;20037;-75
2023/04/29 23:18:54;;;;;;;2.35;1.20;;;;;;;21.01;46.31;100736.06;20911708;28;20095;-74
2023/04/29 23:28:55;;;;;;;3.30;1.08;;;;;;;21.00;46.36;100789.19;20862221;28;20049;-74
2023/04/29 23:38:59;;;;;;;3.63;1.13;;;;;;;21.06;46.55;100804.75;20897006;28;20045;-75
2023/04/29 23:49:01;;;;;;;7.28;1.48;;;;;;;21.17;46.08;100813.91;20876100;28;20094;-77
2023/04/29 23:59:02;;;;;;;9.00;1.63;;;;;;;20.89;46.26;100793.13;20920442;28;20403;-77
